Tiempo atmosférico en la estación meteorológica de Castello d?Empuries, Girona (4 m.)

Fecha
DESCASC
Temp. máxima en grados centígrados (hora)
DESCASC
Temp. mínima en grados centígrados (hora)
DESCASC
Temp. media en grados centígrados
DESCASC
Racha de viento máxima en m/sg (hora)
DESCASC
Velocidad máxima media en intervalos de 10 minutos(hora)
DESCASC
Precipitaciones diarias en mm
DESCASC
Precipitaciones de 00:00 a 06:00 en mm
DESCASC
Precipitaciones de 06:00 a 12:00 en mm
DESCASC
Precipitaciones de 12:00 a 18:00 en mm
DESCASC
Precipitaciones de 18:00 a 24:00 en mm
DESCASC

Gráficas

Temp. máximas Temp. mínimas Temp. medias Precipitaciones Rachas de viento máximas Velocidades máximas media en intervalos de 10 minutos

Datos horarios

Fecha y hora oficial Temperatura (ºC) Velocidad del viento (km/h) Dirección del viento Racha (km/h) Dirección de racha Precipitación (mm) Presión (hPa) Tendencia (hPa) Humedad (%)
2017-11-24 23:00:00 10.2 4 Sudoeste 7 Sudoeste 0 -- -- 100
2017-11-24 22:00:00 10.5 4 Oeste 7 Oeste 0 -- -- 99
2017-11-24 21:00:00 11.4 5 Oeste 7 Noroeste 0 -- -- 99
2017-11-24 20:00:00 11.5 0 Calma 5 Noroeste 0 -- -- 99
2017-11-24 19:00:00 11.8 2 Noroeste 5 Oeste 0 -- -- 97
2017-11-24 18:00:00 12.7 3 Sur 4 Sur 0 -- -- 92
2017-11-24 17:00:00 14.4 3 Sudeste 13 Sudeste 0 -- -- 90
2017-11-24 16:00:00 16 8 Sudeste 15 Sudeste 0 -- -- 84
2017-11-24 15:00:00 17.2 7 Sudeste 14 Este 0 -- -- 76
2017-11-24 14:00:00 16.8 3 Este 7 Este 0 -- -- 76
2017-11-24 13:00:00 15.1 2 Oeste 8 Norte 0 -- -- 80
2017-11-24 12:00:00 12.7 2 Noroeste 8 Oeste 0 -- -- 89
2017-11-24 11:00:00 11.3 4 Oeste 7 Noroeste 0 -- -- 92
2017-11-24 10:00:00 10.6 3 Oeste 9 Oeste 0 -- -- 96
2017-11-24 09:00:00 8.5 0 Calma -- -- 0 -- -- 99
2017-11-24 08:00:00 8.4 0 Calma 8 Sudoeste 0 -- -- 96
2017-11-24 07:00:00 9 4 Oeste 6 Oeste 0 -- -- 97
2017-11-24 06:00:00 9 5 Oeste 7 Oeste 0 -- -- 97
2017-11-24 05:00:00 8.9 4 Sudoeste 9 Oeste 0 -- -- 97
2017-11-24 04:00:00 8.5 4 Oeste 8 Oeste 0 -- -- 98
2017-11-24 03:00:00 8.4 3 Oeste 8 Oeste 0 -- -- 100
2017-11-24 02:00:00 7.6 5 Oeste 9 Oeste 0 -- -- 99
2017-11-24 01:00:00 7.9 6 Oeste 9 Oeste 0 -- -- 100
2017-11-24 00:00:00 7.8 4 Oeste 8 Oeste 0 -- -- 98
2017-11-23 23:00:00 8.8 4 Oeste 9 Noroeste 0 -- -- 97
2017-11-23 22:00:00 9.6 5 Oeste 9 Oeste 0 -- -- 94
2017-11-23 21:00:00 11.2 4 Noroeste 10 Oeste 0 -- -- 93
2017-11-23 20:00:00 12.3 6 Noroeste 10 Noroeste 0 -- -- 95
2017-11-23 19:00:00 13.1 7 Norte 13 Norte 0 -- -- 92
2017-11-23 18:00:00 14.3 7 Norte 13 Norte 0 -- -- 91
2017-11-23 17:00:00 16.1 6 Nordeste 19 Nordeste 0 -- -- 89
2017-11-23 16:00:00 18.5 5 Sudeste 17 Sudeste 0 -- -- 79
2017-11-23 15:00:00 19.3 12 Sudeste 19 Sudeste 0 -- -- 77
2017-11-23 14:00:00 18 7 Sudeste 17 Sudeste 0 -- -- 82
2017-11-23 13:00:00 16.4 6 Nordeste 13 Nordeste 0 -- -- 77
2017-11-23 12:00:00 14.5 3 Noroeste 8 Noroeste 0 -- -- 81
2017-11-23 11:00:00 11.7 0 Calma 9 Oeste 0 -- -- 91
2017-11-23 10:00:00 8 4 Oeste 7 Oeste 0 -- -- 100
2017-11-23 09:00:00 5.7 4 Oeste 8 Noroeste 0 -- -- 100
2017-11-23 08:00:00 3.9 4 Oeste 8 Noroeste 0 -- -- 100
2017-11-23 07:00:00 4.9 5 Oeste 13 Oeste 0 -- -- 100
2017-11-23 06:00:00 6.1 5 Oeste 11 Oeste 0 -- -- 100
2017-11-23 05:00:00 6.6 6 Oeste 17 Noroeste 0 -- -- 100
2017-11-23 04:00:00 4.8 5 Oeste 9 Noroeste 0 -- -- 100
2017-11-23 03:00:00 5.2 5 Noroeste 9 Oeste 0 -- -- 100
2017-11-23 02:00:00 6.5 4 Noroeste 13 Sudoeste 0 -- -- 100
2017-11-23 01:00:00 7.1 4 Noroeste 10 Sur 0 -- -- 99
2017-11-23 00:00:00 8 4 Noroeste 9 Oeste 0 -- -- 96
2017-11-22 23:00:00 10.8 0 Calma 11 Sudeste 0 -- -- 97
2017-11-22 22:00:00 11.8 6 Sur 18 Sudeste 0 -- -- 99
2017-11-22 21:00:00 12.5 2 Este 21 Sudeste 0 -- -- 90
2017-11-22 20:00:00 13.9 8 Sur 20 Sur 0 -- -- 90
2017-11-22 19:00:00 13.9 9 Sur 22 Sur 0 -- -- 87
2017-11-22 18:00:00 15.1 11 Sur 23 Sur 0 -- -- 79
2017-11-22 17:00:00 17 15 Sur 30 Sur 0 -- -- 72
2017-11-22 16:00:00 19 19 Sur 36 Sur 0 -- -- 60
2017-11-22 15:00:00 20.2 16 Sur 36 Sur 0 -- -- 57
2017-11-22 14:00:00 17.3 7 Sudeste 15 Sudeste 0 -- -- 71
2017-11-22 13:00:00 16.5 6 Este 12 Este 0 -- -- 69
2017-11-22 12:00:00 13.9 2 Norte 8 Norte 0 -- -- 70
2017-11-22 11:00:00 10.6 3 Oeste 8 Oeste 0 -- -- 78
2017-11-22 10:00:00 6 3 Oeste 8 Oeste 0 -- -- 96
2017-11-22 09:00:00 2.5 6 Oeste 9 Noroeste 0 -- -- 100
2017-11-22 08:00:00 1.4 5 Oeste 8 Noroeste 0 -- -- 100
2017-11-22 07:00:00 1.8 5 Oeste 9 Noroeste 0 -- -- 100
2017-11-22 06:00:00 1.4 5 Noroeste 8 Noroeste 0 -- -- 100
2017-11-22 05:00:00 1.5 0 Calma 7 Noroeste 0 -- -- 100
2017-11-22 04:00:00 1.8 5 Noroeste 8 Oeste 0 -- -- 100
2017-11-22 03:00:00 2.6 3 Sudoeste 8 Oeste 0 -- -- 99
2017-11-22 02:00:00 3.3 0 Calma -- -- 0 -- -- 99
2017-11-22 01:00:00 4 0 Calma -- -- 0 -- -- 99
2017-11-22 00:00:00 4.4 0 Calma 7 Sur 0 -- -- 98
2017-11-21 23:00:00 5.4 4 Oeste 9 Oeste 0 -- -- 98
2017-11-21 22:00:00 6.4 4 Noroeste 6 Noroeste 0 -- -- 98
2017-11-21 21:00:00 7.5 0 Calma -- -- 0 -- -- 98
2017-11-21 20:00:00 8.9 0 Calma 6 Noroeste 0 -- -- 93
2017-11-21 19:00:00 11 5 Noroeste 6 Noroeste 0 -- -- 96
2017-11-21 18:00:00 12.2 0 Calma 6 Este 0 -- -- 92
2017-11-21 17:00:00 14.6 4 Este 15 Sudeste 0 -- -- 84
2017-11-21 16:00:00 16.6 7 Sudeste 19 Sudeste 0 -- -- 75
2017-11-21 15:00:00 17.8 9 Sudeste 20 Este 0 -- -- 64
2017-11-21 14:00:00 18.2 11 Sudeste 19 Sudeste 0 -- -- 54
2017-11-21 13:00:00 17.6 6 Este 10 Este 0 -- -- 57
2017-11-21 12:00:00 15.2 3 Sudeste 7 Sudeste 0 -- -- 60
2017-11-21 11:00:00 11.9 0 Calma 6 Noroeste 0 -- -- 66
2017-11-21 10:00:00 8 2 Oeste 5 Sudoeste 0 -- -- 83
2017-11-21 09:00:00 3.2 0 Calma 5 Oeste 0 -- -- 100
2017-11-21 08:00:00 1.6 4 Oeste 6 Noroeste 0 -- -- 98
2017-11-21 07:00:00 1.8 0 Calma 5 Sudoeste 0 -- -- 97
2017-11-21 06:00:00 2.6 3 Sudoeste 8 Oeste 0 -- -- 97
2017-11-21 05:00:00 2.8 2 Oeste 7 Oeste 0 -- -- 97
2017-11-21 04:00:00 3.1 4 Oeste 6 Noroeste 0 -- -- 95
2017-11-21 03:00:00 4.1 4 Sudoeste 8 Sudoeste 0 -- -- 94
2017-11-21 02:00:00 4.7 4 Oeste 8 Oeste 0 -- -- 94
2017-11-21 01:00:00 5.1 4 Oeste 8 Oeste 0 -- -- 94
2017-11-21 00:00:00 5.7 4 Oeste 7 Noroeste 0 -- -- 92
2017-11-20 23:00:00 6.5 5 Noroeste 9 Noroeste 0 -- -- 90
2017-11-20 22:00:00 7.3 5 Oeste 8 Noroeste 0 -- -- 88
2017-11-20 21:00:00 8.6 5 Oeste 9 Oeste 0 -- -- 87
2017-11-20 20:00:00 9.9 4 Oeste 7 Noroeste 0 -- -- 90
2017-11-20 19:00:00 11.3 6 Noroeste 8 Noroeste 0 -- -- 91
2017-11-20 18:00:00 12.7 3 Este 12 Este 0 -- -- 89
2017-11-20 17:00:00 14.8 8 Este 18 Este 0 -- -- 82
2017-11-20 16:00:00 17.4 9 Este 20 Sudeste 0 -- -- 69
2017-11-20 15:00:00 19.2 9 Sudeste 20 Sudeste 0 -- -- 57
2017-11-20 14:00:00 19.8 8 Sudeste 13 Este 0 -- -- 52
2017-11-20 13:00:00 18.8 7 Este 14 Sudoeste 0 -- -- 52
2017-11-20 12:00:00 16.7 4 Sudoeste 10 Sur 0 -- -- 53
2017-11-20 11:00:00 13.8 3 Oeste 14 Oeste 0 -- -- 57
2017-11-20 10:00:00 11 6 Oeste 14 Sudoeste 0 -- -- 67
2017-11-20 09:00:00 6.5 4 Noroeste 12 Oeste 0 -- -- 80
2017-11-20 08:00:00 4 8 Sudoeste 11 Oeste 0 -- -- 86
2017-11-20 07:00:00 4.9 8 Oeste 12 Oeste 0 -- -- 82
2017-11-20 06:00:00 6.1 3 Sur 19 Sudoeste 0 -- -- 71
2017-11-20 05:00:00 6.1 7 Oeste 13 Oeste 0 -- -- 68
2017-11-20 04:00:00 6.1 6 Oeste 14 Sudoeste 0 -- -- 72
2017-11-20 03:00:00 8.2 5 Sudoeste 15 Oeste 0 -- -- 64
2017-11-20 02:00:00 13 10 Noroeste 22 Noroeste 0 -- -- 43
2017-11-20 01:00:00 13.7 16 Noroeste 28 Noroeste 0 -- -- 48
2017-11-20 00:00:00 12.7 10 Noroeste 25 Noroeste 0 -- -- 53
2017-11-19 23:00:00 12.4 6 Noroeste 23 Noroeste 0 -- -- 54
2017-11-19 22:00:00 13.3 17 Noroeste 32 Noroeste 0 -- -- 51
2017-11-19 21:00:00 13.5 21 Noroeste 36 Noroeste 0 -- -- 50
2017-11-19 20:00:00 13.9 14 Noroeste 26 Noroeste 0 -- -- 42
2017-11-19 19:00:00 15.5 12 Norte 36 Norte 0 -- -- 36
2017-11-19 18:00:00 16.3 18 Noroeste 32 Noroeste 0 -- -- 31
2017-11-19 17:00:00 17.1 13 Noroeste 32 Norte 0 -- -- 34
2017-11-19 16:00:00 18.5 18 Noroeste 45 Norte 0 -- -- 28
2017-11-19 15:00:00 19.1 19 Noroeste 45 Norte 0 -- -- 26
2017-11-19 14:00:00 19.5 21 Norte 44 Noroeste 0 -- -- 24
2017-11-19 13:00:00 19.8 20 Norte 32 Noroeste 0 -- -- 19
2017-11-19 12:00:00 16.7 5 Sudoeste 14 Oeste 0 -- -- 37
2017-11-19 11:00:00 12.3 5 Oeste 10 Oeste 0 -- -- 54
2017-11-19 10:00:00 6.2 4 Oeste 9 Oeste 0 -- -- 97
2017-11-19 09:00:00 2.6 4 Oeste 12 Norte 0 -- -- 100
2017-11-19 08:00:00 -0.1 4 Sudoeste 8 Sudeste 0 -- -- 100
2017-11-19 07:00:00 -0.2 2 Noroeste 7 Noroeste 0 -- -- 100
2017-11-19 06:00:00 0.5 4 Sudoeste 8 Sudoeste 0 -- -- 99
2017-11-19 05:00:00 1.5 0 Calma 6 Norte 0 -- -- 99
2017-11-19 04:00:00 2.4 3 Noroeste 10 Norte 0 -- -- 99
2017-11-19 03:00:00 2.8 0 Calma 8 Noroeste 0 -- -- 98
2017-11-19 02:00:00 3.7 3 Noroeste 10 Sudoeste 0 -- -- 97
2017-11-19 01:00:00 3.8 5 Oeste 8 Sudoeste 0 -- -- 96
2017-11-19 00:00:00 4 4 Oeste 9 Oeste 0 -- -- 93
2017-11-18 23:00:00 4.9 6 Oeste 8 Noroeste 0 -- -- 94
2017-11-18 22:00:00 5.6 0 Calma 9 Noroeste 0 -- -- 90
2017-11-18 21:00:00 7 2 Noroeste 5 Noroeste 0 -- -- 90
2017-11-18 20:00:00 8.1 0 Calma 3 Noroeste 0 -- -- 86
2017-11-18 19:00:00 9.6 2 Sudeste 10 Sudoeste 0 -- -- 80
2017-11-18 18:00:00 11.9 4 Nordeste 8 Nordeste 0 -- -- 71
2017-11-18 17:00:00 15.2 5 Nordeste 13 Este 0 -- -- 59
2017-11-18 16:00:00 17.4 9 Este 22 Este 0 -- -- 56
2017-11-18 15:00:00 19.6 11 Nordeste 22 Noroeste 0 -- -- 48
2017-11-18 14:00:00 20.1 7 Noroeste 20 Noroeste 0 -- -- 38
2017-11-18 13:00:00 19 9 Oeste 24 Norte 0 -- -- 43
2017-11-18 12:00:00 18.3 15 Noroeste 26 Noroeste 0 -- -- 43
2017-11-18 11:00:00 17.2 13 Noroeste 25 Noroeste 0 -- -- 46
2017-11-18 10:00:00 15 12 Noroeste 22 Noroeste 0 -- -- 52
2017-11-18 09:00:00 11.2 9 Oeste 23 Oeste 0 -- -- 65
2017-11-18 08:00:00 8.8 10 Sudoeste 15 Sudoeste 0 -- -- 70
2017-11-18 07:00:00 8.9 6 Sudoeste 18 Sudoeste 0 -- -- 74
2017-11-18 06:00:00 7.6 6 Sudoeste 15 Sudoeste 0 -- -- 76
2017-11-18 05:00:00 8 7 Noroeste 16 Sudoeste 0 -- -- 78
2017-11-18 04:00:00 7.6 5 Sudoeste 10 Sudoeste 0 -- -- 81
2017-11-18 03:00:00 7.3 6 Sudoeste 12 Sudoeste 0 -- -- 84
2017-11-18 02:00:00 6.6 8 Sudoeste 15 Sudoeste 0 -- -- 87
2017-11-18 01:00:00 4.7 6 Oeste 12 Sudoeste 0 -- -- 94
2017-11-18 00:00:00 5.4 5 Oeste 11 Sudoeste 0 -- -- 94
2017-11-17 23:00:00 5.6 3 Oeste 9 Oeste 0 -- -- 95
2017-11-17 22:00:00 5.9 3 Noroeste 7 Noroeste 0 -- -- 96
2017-11-17 21:00:00 6.6 0 Calma -- -- 0 -- -- 94
2017-11-17 20:00:00 7.7 0 Calma -- -- 0 -- -- 90
2017-11-17 19:00:00 9.4 0 Calma -- -- 0 -- -- 86
2017-11-17 18:00:00 11.6 2 Sur 14 Sudeste 0 -- -- 84
2017-11-17 17:00:00 14.3 8 Sudeste 18 Sudeste 0 -- -- 76
2017-11-17 16:00:00 15 13 Sudeste 27 Sudeste 0 -- -- 77
2017-11-17 15:00:00 16.9 18 Sudeste 28 Sudeste 0 -- -- 67
2017-11-17 14:00:00 16.1 12 Sudeste 27 Sudeste 0 -- -- 68
2017-11-17 13:00:00 19.4 10 Sudeste 17 Sudeste 0 -- -- 48
2017-11-17 12:00:00 18.2 7 Sudeste 14 Sudeste 0 -- -- 54
2017-11-17 11:00:00 13.9 5 Sudoeste 11 Sur 0 -- -- 59
2017-11-17 10:00:00 7.8 2 Noroeste 9 Sudoeste 0 -- -- 84
2017-11-17 09:00:00 3.2 2 Sudoeste 8 Oeste 0 -- -- 100
2017-11-17 08:00:00 1.1 5 Oeste 7 Oeste 0 -- -- 99
2017-11-17 07:00:00 1.9 0 Calma 10 Oeste 0 -- -- 98
2017-11-17 06:00:00 2.9 4 Noroeste 13 Sudoeste 0 -- -- 97
2017-11-17 05:00:00 2.4 3 Noroeste 7 Noroeste 0 -- -- 98
2017-11-17 04:00:00 3.2 4 Oeste 10 Sudoeste 0 -- -- 98
2017-11-17 03:00:00 3.4 6 Oeste 14 Noroeste 0 -- -- 100
2017-11-17 02:00:00 2.9 5 Noroeste 9 Norte 0 -- -- 100
2017-11-17 01:00:00 2.7 3 Noroeste 6 Oeste 0 -- -- 98
2017-11-17 00:00:00 3.7 0 Calma 6 Nordeste 0 -- -- 97
2017-11-16 23:00:00 5 4 Oeste 7 Noroeste 0 -- -- 97
2017-11-16 22:00:00 5.7 5 Noroeste 8 Oeste 0 -- -- 97
2017-11-16 21:00:00 6.4 5 Oeste 9 Noroeste 0 -- -- 94
2017-11-16 20:00:00 7.6 5 Noroeste 7 Noroeste 0 -- -- 94
2017-11-16 19:00:00 8.6 3 Este 10 Este 0 -- -- 93
2017-11-16 18:00:00 9.8 7 Sudeste 14 Sudeste 0 -- -- 87
2017-11-16 17:00:00 12.2 7 Sudeste 17 Sudeste 0 -- -- 78
2017-11-16 16:00:00 14.9 7 Sudeste 14 Este 0 -- -- 65
2017-11-16 15:00:00 15.3 6 Sudeste 14 Este 0 -- -- 63
2017-11-16 14:00:00 15.4 8 Sudeste 15 Este 0 -- -- 62
2017-11-16 13:00:00 14.8 6 Sudeste 12 Sudeste 0 -- -- 55
2017-11-16 12:00:00 13 4 Sudeste 13 Sudeste 0 -- -- 64
2017-11-16 11:00:00 10.3 3 Sudeste 9 Oeste 0 -- -- 70
2017-11-16 10:00:00 6.6 5 Oeste 13 Oeste 0 -- -- 76
2017-11-16 09:00:00 3.2 6 Oeste 10 Oeste 0 -- -- 82
2017-11-16 08:00:00 1.5 6 Oeste 11 Oeste 0 -- -- 87
2017-11-16 07:00:00 1.7 6 Oeste 13 Oeste 0 -- -- 84
2017-11-16 06:00:00 1.8 7 Oeste 11 Oeste 0 -- -- 84
2017-11-16 05:00:00 2.3 5 Oeste 10 Oeste 0 -- -- 81
2017-11-16 04:00:00 2.9 6 Oeste 13 Oeste 0 -- -- 76
2017-11-16 03:00:00 2 8 Oeste 10 Oeste 0 -- -- 81
2017-11-16 02:00:00 3 5 Oeste 12 Oeste 0 -- -- 78
2017-11-16 01:00:00 3.5 6 Oeste 12 Oeste 0 -- -- 77
2017-11-16 00:00:00 4 4 Sudoeste 10 Oeste 0 -- -- 72
2017-11-15 23:00:00 4.9 6 Oeste 12 Noroeste 0 -- -- 68
2017-11-15 22:00:00 5.5 7 Oeste 10 Oeste 0 -- -- 71
2017-11-15 21:00:00 6.4 6 Noroeste 11 Noroeste 0 -- -- 68
2017-11-15 20:00:00 7.2 5 Noroeste 8 Oeste 0 -- -- 73
2017-11-15 19:00:00 8.6 3 Sudeste 6 Sudeste 0 -- -- 76
2017-11-15 18:00:00 10.9 4 Sudeste 12 Sudeste 0 -- -- 65
2017-11-15 17:00:00 13.3 6 Sudeste 19 Sudeste 0 -- -- 58
2017-11-15 16:00:00 16.3 11 Sudeste 24 Este 0 -- -- 45
2017-11-15 15:00:00 17.8 14 Sudeste 21 Sudeste 0 -- -- 36
2017-11-15 14:00:00 16.8 9 Sudeste 17 Este 0 -- -- 41
2017-11-15 13:00:00 16.1 5 Sudeste 12 Este 0 -- -- 35
2017-11-15 12:00:00 13.6 3 Sudeste 9 Sudoeste 0 -- -- 37
2017-11-15 11:00:00 10.1 3 Sur 7 Sur 0 -- -- 44
2017-11-15 10:00:00 5.6 3 Nordeste 8 Nordeste 0 -- -- 62
2017-11-15 09:00:00 1.8 4 Norte 10 Oeste 0 -- -- 72
2017-11-15 08:00:00 -1.6 0 Calma 8 Noroeste 0 -- -- 85
2017-11-15 07:00:00 -1.6 2 Noroeste 10 Oeste 0 -- -- 85
2017-11-15 06:00:00 -1 7 Sudoeste 10 Sudoeste 0 -- -- 85
2017-11-15 05:00:00 -0.1 5 Oeste 9 Este 0 -- -- 80
2017-11-15 04:00:00 0.5 2 Este 9 Sudeste 0 -- -- 78
2017-11-15 03:00:00 3.6 6 Sur 15 Sudoeste 0 -- -- 64
2017-11-15 02:00:00 7.1 7 Oeste 26 Noroeste 0 -- -- 57
2017-11-15 01:00:00 8.6 12 Noroeste 29 Norte 0 -- -- 53
2017-11-15 00:00:00 8.5 14 Noroeste 29 Noroeste 0 -- -- 60
2017-11-14 23:00:00 8.8 18 Noroeste 32 Noroeste 0 -- -- 58
2017-11-14 22:00:00 7.8 9 Oeste 17 Oeste 0 -- -- 60
2017-11-14 21:00:00 8.2 7 Noroeste 15 Noroeste 0 -- -- 58
2017-11-14 20:00:00 9.5 7 Noroeste 32 Norte 0 -- -- 51
2017-11-14 19:00:00 10.7 16 Norte 37 Norte 0 -- -- 44
2017-11-14 18:00:00 11.6 23 Norte 45 Norte 0 -- -- 39
2017-11-14 17:00:00 12.4 24 Norte 42 Norte 0 -- -- 39
2017-11-14 16:00:00 13.7 24 Noroeste 57 Norte 0 -- -- 35
2017-11-14 15:00:00 14.2 31 Norte 55 Norte 0 -- -- 33
2017-11-14 14:00:00 14.5 31 Norte 61 Noroeste 0 -- -- 32
2017-11-14 13:00:00 14.1 40 Noroeste 67 Noroeste 0 -- -- 32
2017-11-14 12:00:00 13.7 34 Noroeste 69 Noroeste 0 -- -- 34
2017-11-14 11:00:00 12.8 33 Noroeste 65 Noroeste 0 -- -- 37
2017-11-14 10:00:00 11.7 26 Noroeste 58 Noroeste 0 -- -- 41
2017-11-14 09:00:00 10.9 27 Noroeste 71 Norte 0 -- -- 42
2017-11-14 08:00:00 10 34 Noroeste 69 Norte 0 -- -- 44
2017-11-14 07:00:00 9.8 38 Noroeste 80 Norte 0 -- -- 46
2017-11-14 06:00:00 9.9 42 Noroeste 84 Noroeste 0 -- -- 46
2017-11-14 05:00:00 9.9 43 Noroeste 83 Norte 0 -- -- 45
2017-11-14 04:00:00 9.6 38 Norte 85 Norte 0 -- -- 48
2017-11-14 03:00:00 9.9 48 Noroeste 90 Noroeste 0 -- -- 47
2017-11-14 02:00:00 9.9 49 Noroeste 80 Norte 0 -- -- 48
2017-11-14 01:00:00 10 46 Noroeste 90 Norte 0 -- -- 47
2017-11-14 00:00:00 10.2 45 Noroeste 84 Noroeste 0 -- -- 43
2017-11-13 23:00:00 10.4 42 Noroeste 87 Noroeste 0 -- -- 42
2017-11-13 22:00:00 10.7 51 Noroeste 92 Noroeste 0 -- -- 41
2017-11-13 21:00:00 10.5 48 Noroeste 90 Noroeste 0 -- -- 43
2017-11-13 20:00:00 10.7 50 Noroeste 97 Noroeste 0 -- -- 43
2017-11-13 19:00:00 10.4 46 Noroeste 85 Noroeste 0 -- -- 45
2017-11-13 18:00:00 10.6 50 Noroeste 89 Noroeste 0 -- -- 44
2017-11-13 17:00:00 10.7 45 Noroeste 93 Noroeste 0 -- -- 44
2017-11-13 16:00:00 11.2 50 Noroeste 94 Norte 0 -- -- 43
2017-11-13 15:00:00 11.7 50 Noroeste 92 Noroeste 0 -- -- 41
2017-11-13 14:00:00 11.7 53 Noroeste 95 Noroeste 0 -- -- 41
2017-11-13 13:00:00 11.8 55 Noroeste 90 Noroeste 0 -- -- 39
2017-11-13 12:00:00 11.6 49 Noroeste 86 Norte 0 -- -- 39
2017-11-13 11:00:00 11.1 48 Noroeste 85 Norte 0 -- -- 41
2017-11-13 10:00:00 10.4 43 Noroeste 80 Noroeste 0 -- -- 43
2017-11-13 09:00:00 9.5 41 Norte 80 Noroeste 0 -- -- 43
2017-11-13 08:00:00 9.1 48 Noroeste 83 Norte 0 -- -- 48
2017-11-13 07:00:00 9.3 54 Norte 81 Noroeste 0 -- -- 50
2017-11-13 06:00:00 9.9 50 Noroeste 84 Noroeste 0 -- -- 49
2017-11-13 05:00:00 10.2 48 Noroeste 88 Noroeste 0 -- -- 51
2017-11-13 04:00:00 10 40 Noroeste 73 Noroeste 0 -- -- 54
2017-11-13 03:00:00 10.5 41 Noroeste 94 Norte 0 -- -- 54
2017-11-13 02:00:00 10.6 45 Noroeste 93 Noroeste 0 -- -- 55
2017-11-13 01:00:00 11 46 Norte 75 Norte 0 -- -- 59
2017-11-13 00:00:00 9.2 6 Oeste 14 Oeste 0 -- -- 96
2017-11-12 23:00:00 8.3 5 Norte 17 Noroeste 0 -- -- 97
2017-11-12 22:00:00 8.6 4 Oeste 12 Noroeste 0 -- -- 98
2017-11-12 21:00:00 9.5 2 Oeste 8 Sudoeste 0 -- -- 96
2017-11-12 20:00:00 10.7 0 Calma 7 Sudeste 0 -- -- 92
2017-11-12 19:00:00 12.2 4 Sudeste 9 Sudeste 0 -- -- 92
2017-11-12 18:00:00 13.9 5 Nordeste 11 Sur 0 -- -- 82
2017-11-12 17:00:00 16.7 5 Sudeste 21 Sudeste 0 -- -- 70
2017-11-12 16:00:00 18.2 14 Sudeste 25 Sudeste 0 -- -- 72
2017-11-12 15:00:00 18.7 12 Sudeste 21 Este 0 -- -- 70
2017-11-12 14:00:00 19.8 8 Este 18 Este 0 -- -- 61
2017-11-12 13:00:00 20 7 Sudoeste 17 Sudoeste 0 -- -- 50
2017-11-12 12:00:00 18 6 Sur 15 Sur 0 -- -- 60
2017-11-12 11:00:00 15.1 4 Sudeste 8 Sudoeste 0 -- -- 70
2017-11-12 10:00:00 11.2 3 Sur 8 Sur 0 -- -- 80
2017-11-12 09:00:00 8.2 4 Sudoeste 9 Sudoeste 0 -- -- 90
2017-11-12 08:00:00 5.1 4 Sudeste 6 Sur 0 -- -- 97
2017-11-12 07:00:00 5.8 6 Sudoeste 13 Sudoeste 0 -- -- 95
2017-11-12 06:00:00 4.9 3 Nordeste 7 Este 0 -- -- 96
2017-11-12 05:00:00 5.9 2 Sudoeste 15 Sudoeste 0 -- -- 93
2017-11-12 04:00:00 6.2 0 Calma 10 Este 0 -- -- 95
2017-11-12 03:00:00 6.9 5 Noroeste 13 Sudoeste 0 -- -- 92
2017-11-12 02:00:00 7.3 6 Oeste 12 Sur 0 -- -- 91
2017-11-12 01:00:00 8.2 4 Oeste 9 Oeste 0 -- -- 87
2017-11-12 00:00:00 8.5 2 Oeste 12 Oeste 0 -- -- 86
2017-11-11 23:00:00 9 5 Oeste 9 Oeste 0 -- -- 85
2017-11-11 22:00:00 9.9 2 Nordeste 11 Este 0 -- -- 82
2017-11-11 21:00:00 11.6 5 Sudoeste 11 Norte 0 -- -- 74
2017-11-11 20:00:00 11.6 5 Sudoeste 9 Sudoeste 0 -- -- 74
2017-11-11 19:00:00 12.6 0 Calma 7 Sudeste 0 -- -- 71
2017-11-11 18:00:00 14.6 2 Norte 17 Sudoeste 0 -- -- 61
2017-11-11 17:00:00 16.3 6 Sur 25 Noroeste 0 -- -- 55
2017-11-11 16:00:00 18.4 9 Oeste 23 Norte 0 -- -- 51
2017-11-11 15:00:00 18.8 8 Noroeste 51 Noroeste 0 -- -- 50
2017-11-11 14:00:00 19.7 26 Norte 45 Norte 0 -- -- 46
2017-11-11 13:00:00 20.3 27 Noroeste 61 Norte 0 -- -- 45
2017-11-11 12:00:00 20 27 Norte 60 Noroeste 0 -- -- 46
2017-11-11 11:00:00 18.9 28 Norte 55 Noroeste 0 -- -- 49
2017-11-11 10:00:00 17.1 27 Norte 41 Noroeste 0 -- -- 58
2017-11-11 09:00:00 15.9 19 Noroeste 33 Noroeste 0 -- -- 61
2017-11-11 08:00:00 15.2 17 Noroeste 41 Noroeste 0 -- -- 62
2017-11-11 07:00:00 13.9 4 Oeste 39 Norte 0 -- -- 63
2017-11-11 06:00:00 15 22 Norte 51 Norte 0 -- -- 62
2017-11-11 05:00:00 15.2 29 Norte 52 Norte 0 -- -- 62
2017-11-11 04:00:00 15.5 27 Norte 55 Norte 0 -- -- 60
2017-11-11 03:00:00 15.6 31 Norte 47 Noroeste 0 -- -- 58
2017-11-11 02:00:00 15.5 22 Noroeste 50 Norte 0 -- -- 59
2017-11-11 01:00:00 15.7 25 Noroeste 46 Norte 0 -- -- 59
2017-11-11 00:00:00 16.1 29 Noroeste 57 Noroeste 0 -- -- 56
2017-11-10 23:00:00 15.8 23 Noroeste 50 Norte 0 -- -- 56
2017-11-10 22:00:00 15.4 27 Noroeste 58 Noroeste 0 -- -- 59
2017-11-10 21:00:00 15.6 29 Norte 48 Noroeste 0 -- -- 56
2017-11-10 20:00:00 15.6 24 Noroeste 53 Noroeste 0 -- -- 53
2017-11-10 19:00:00 15 12 Noroeste 32 Oeste 0 -- -- 56
2017-11-10 18:00:00 15 9 Oeste 27 Oeste 0 -- -- 55
2017-11-10 17:00:00 16.1 16 Noroeste 48 Norte 0 -- -- 50
2017-11-10 16:00:00 16.1 29 Norte 56 Norte 0 -- -- 48
2017-11-10 15:00:00 17.7 13 Noroeste 35 Norte 0 -- -- 44
2017-11-10 14:00:00 18.3 23 Norte 40 Norte 0 -- -- 41
2017-11-10 13:00:00 17.9 22 Norte 44 Noroeste 0 -- -- 40
2017-11-10 12:00:00 16.9 28 Norte 42 Noroeste 0 -- -- 41
2017-11-10 11:00:00 15.1 26 Norte 44 Norte 0 -- -- 42
2017-11-10 10:00:00 13.5 21 Norte 49 Norte 0 -- -- 47
2017-11-10 09:00:00 11.8 26 Norte 48 Noroeste 0 -- -- 55
2017-11-10 08:00:00 10.4 29 Norte 49 Norte 0 -- -- 58
2017-11-10 07:00:00 10.1 26 Norte 45 Norte 0 -- -- 59
2017-11-10 06:00:00 10.2 26 Noroeste 44 Noroeste 0 -- -- 58
2017-11-10 05:00:00 10.6 26 Noroeste 50 Noroeste 0 -- -- 57
2017-11-10 04:00:00 10.2 21 Norte 42 Norte 0 -- -- 60
2017-11-10 03:00:00 9.3 17 Norte 28 Norte 0 -- -- 66
2017-11-10 02:00:00 9.8 15 Norte 30 Noroeste 0 -- -- 64
2017-11-10 01:00:00 10 16 Norte 39 Noroeste 0 -- -- 62
2017-11-10 00:00:00 10.4 22 Norte 41 Norte 0 -- -- 61
2017-11-09 23:00:00 10.8 23 Norte 40 Norte 0 -- -- 59
2017-11-09 22:00:00 10.5 23 Norte 47 Norte 0 -- -- 61
2017-11-09 21:00:00 10.2 22 Norte 49 Norte 0 -- -- 62
2017-11-09 20:00:00 10.3 28 Norte 58 Norte 0 -- -- 63
2017-11-09 19:00:00 10.3 24 Noroeste 57 Noroeste 0 -- -- 64
2017-11-09 18:00:00 10.4 29 Noroeste 52 Noroeste 0 -- -- 66
2017-11-09 17:00:00 10.6 27 Norte 46 Noroeste 0 -- -- 65
2017-11-09 16:00:00 11.8 20 Noroeste 42 Noroeste 0 -- -- 58
2017-11-09 15:00:00 11.3 25 Noroeste 47 Norte 0 -- -- 58
2017-11-09 14:00:00 11.3 26 Norte 47 Noroeste 0 -- -- 57
2017-11-09 13:00:00 11.7 25 Norte 51 Norte 0 -- -- 56
2017-11-09 12:00:00 11 24 Noroeste 54 Noroeste 0 -- -- 58
2017-11-09 11:00:00 10.9 24 Noroeste 50 Noroeste 0 -- -- 58
2017-11-09 10:00:00 10.8 26 Noroeste 49 Norte 0 -- -- 58
2017-11-09 09:00:00 9.8 13 Norte 41 Norte 0 -- -- 62
2017-11-09 08:00:00 8.7 23 Norte 45 Noroeste 0 -- -- 71
2017-11-09 07:00:00 9.2 18 Norte 34 Norte 0 -- -- 68
2017-11-09 06:00:00 9.2 17 Norte 32 Norte 0 -- -- 64
2017-11-09 05:00:00 4.1 4 Oeste 8 Oeste 0 -- -- 82
2017-11-09 04:00:00 4.4 5 Oeste 10 Oeste 0 -- -- 77
2017-11-09 03:00:00 5.1 5 Oeste 13 Oeste 0 -- -- 73
2017-11-09 02:00:00 5.7 8 Oeste 10 Oeste 0 -- -- 69
2017-11-09 01:00:00 7.5 5 Oeste 22 Noroeste 0 -- -- 60
2017-11-09 00:00:00 8.9 10 Norte 27 Norte 0 -- -- 56
2017-11-08 23:00:00 8.6 10 Noroeste 24 Noroeste 0 -- -- 61
2017-11-08 22:00:00 10.2 16 Noroeste 32 Noroeste 0 -- -- 56
2017-11-08 21:00:00 10.8 18 Noroeste 31 Norte 0 -- -- 55
2017-11-08 20:00:00 10.4 13 Norte 30 Norte 0 -- -- 57
2017-11-08 19:00:00 11.4 17 Norte 33 Noroeste 0 -- -- 50
2017-11-08 18:00:00 11.8 13 Norte 23 Norte 0 -- -- 44
2017-11-08 17:00:00 13 15 Norte 24 Norte 0 -- -- 44
2017-11-08 16:00:00 14 13 Norte 27 Norte 0 -- -- 44
2017-11-08 15:00:00 14.8 17 Norte 42 Norte 0 -- -- 44
2017-11-08 14:00:00 14.7 22 Norte 36 Noroeste 0 -- -- 43
2017-11-08 13:00:00 15.1 12 Norte 31 Norte 0 -- -- 44
2017-11-08 12:00:00 13.5 4 Sudeste 9 Sudeste 0 -- -- 53
2017-11-08 11:00:00 10.7 6 Oeste 9 Sudoeste 0 -- -- 55
2017-11-08 10:00:00 7.7 4 Noroeste 10 Noroeste 0 -- -- 70
2017-11-08 09:00:00 5.5 0 Calma 11 Oeste 0 -- -- 81
2017-11-08 08:00:00 3.7 0 Calma 4 Sudoeste 0 -- -- 90
2017-11-08 07:00:00 4.2 0 Calma 7 Sudoeste 0 -- -- 84
2017-11-08 06:00:00 3.9 0 Calma 9 Sudoeste 0 -- -- 83
2017-11-08 05:00:00 2.6 0 Calma 8 Sur 0 -- -- 87
2017-11-08 04:00:00 2.9 5 Oeste 9 Oeste 0 -- -- 81
2017-11-08 03:00:00 4 4 Sudoeste 10 Noroeste 0 -- -- 76
2017-11-08 02:00:00 5.1 5 Oeste 12 Oeste 0 -- -- 72
2017-11-08 01:00:00 5.6 6 Oeste 10 Oeste 0 -- -- 70
2017-11-08 00:00:00 7.4 7 Noroeste 22 Noroeste 0 -- -- 61
2017-11-07 23:00:00 8.9 16 Noroeste 30 Oeste 0 -- -- 56
2017-11-07 22:00:00 9.2 14 Noroeste 25 Noroeste 0 -- -- 54
2017-11-07 21:00:00 9.3 10 Noroeste 26 Noroeste 0 -- -- 49
2017-11-07 20:00:00 7.9 6 Noroeste 9 Noroeste 0 -- -- 57
2017-11-07 19:00:00 9.3 5 Norte 12 Norte 0 -- -- 57
2017-11-07 18:00:00 11.2 4 Sudoeste 9 Sudeste 0 -- -- 54
2017-11-07 17:00:00 14 7 Sudeste 18 Sudeste 0 -- -- 49
2017-11-07 16:00:00 17.3 6 Sudeste 16 Sudeste 0 -- -- 33
2017-11-07 15:00:00 16.9 5 Nordeste 12 Nordeste 0 -- -- 29
2017-11-07 14:00:00 16.4 4 Sudoeste 19 Oeste 0 -- -- 28
2017-11-07 13:00:00 15.5 10 Oeste 22 Oeste 0 -- -- 32
2017-11-07 12:00:00 14.8 12 Noroeste 27 Norte 0 -- -- 33
2017-11-07 11:00:00 13.7 15 Norte 33 Noroeste 0 -- -- 37
2017-11-07 10:00:00 12 16 Noroeste 32 Noroeste 0 -- -- 38
2017-11-07 09:00:00 8.4 5 Sudoeste 13 Sudoeste 0 -- -- 51
2017-11-07 08:00:00 5 3 Sudoeste 8 Sudeste 0 -- -- 61
2017-11-07 07:00:00 7.5 3 Este 33 Norte 0 -- -- 54
2017-11-07 06:00:00 9.4 9 Noroeste 39 Norte 0 -- -- 43
2017-11-07 05:00:00 10 23 Norte 62 Norte 0 -- -- 44
2017-11-07 04:00:00 10.3 27 Noroeste 65 Norte 0 -- -- 45
2017-11-07 03:00:00 10 30 Norte 68 Norte 0 -- -- 47
2017-11-07 02:00:00 10.2 40 Norte 81 Norte 0 -- -- 45
2017-11-07 01:00:00 10.5 41 Noroeste 78 Norte 0 -- -- 43
2017-11-07 00:00:00 10.5 39 Noroeste 77 Norte 0 -- -- 44
2017-11-06 23:00:00 10.9 41 Noroeste 77 Norte 0 -- -- 39
2017-11-06 22:00:00 10.9 40 Noroeste 74 Noroeste 0 -- -- 42
2017-11-06 21:00:00 11.3 40 Noroeste 72 Noroeste 0 -- -- 42
2017-11-06 20:00:00 11.4 35 Noroeste 75 Noroeste 0 -- -- 41
2017-11-06 19:00:00 11.7 45 Noroeste 89 Noroeste 0 -- -- 40
2017-11-06 18:00:00 11.8 42 Noroeste 99 Noroeste 0 -- -- 42
2017-11-06 17:00:00 12.3 57 Noroeste 95 Norte 0 -- -- 38
2017-11-06 16:00:00 13 56 Noroeste 107 Norte 0 -- -- 37
2017-11-06 15:00:00 13.5 55 Noroeste 100 Noroeste 0 -- -- 36
2017-11-06 14:00:00 13.6 55 Noroeste 105 Noroeste 0 -- -- 37
2017-11-06 13:00:00 13 58 Noroeste 98 Noroeste 0 -- -- 39
2017-11-06 12:00:00 12.7 46 Noroeste 87 Noroeste 0 -- -- 44
2017-11-06 11:00:00 11.9 38 Noroeste 78 Noroeste 0 -- -- 49
2017-11-06 10:00:00 11.2 42 Noroeste 80 Noroeste 0 -- -- 54
2017-11-06 09:00:00 10.5 37 Noroeste 77 Noroeste 0 -- -- 55
2017-11-06 08:00:00 10.2 47 Noroeste 81 Noroeste 0 -- -- 53
2017-11-06 07:00:00 10.2 33 Noroeste 75 Noroeste 0 -- -- 50
2017-11-06 06:00:00 10.6 33 Noroeste 59 Noroeste 0 -- -- 48
2017-11-06 05:00:00 10 24 Noroeste 60 Norte 0 -- -- 57
2017-11-06 04:00:00 10.4 30 Noroeste 61 Noroeste 0 -- -- 55
2017-11-06 03:00:00 10.7 32 Noroeste 61 Noroeste 0 -- -- 54
2017-11-06 02:00:00 10.5 21 Noroeste 43 Noroeste 0 -- -- 55
2017-11-06 01:00:00 10.5 21 Noroeste 44 Noroeste 0 -- -- 57
2017-11-06 00:00:00 10.7 24 Noroeste 44 Noroeste 0 -- -- 56
2017-11-05 23:00:00 11.2 24 Noroeste 47 Norte 0 -- -- 53
2017-11-05 22:00:00 11.5 22 Noroeste 53 Noroeste 0 -- -- 52
2017-11-05 21:00:00 11.7 30 Norte 76 Norte 0 -- -- 57
2017-11-05 20:00:00 12.2 43 Norte 78 Noroeste 0 -- -- 59
2017-11-05 19:00:00 13.1 18 Noroeste 45 Norte 0 -- -- 56
2017-11-05 18:00:00 13.6 22 Norte 54 Norte 0 -- -- 56
2017-11-05 17:00:00 14.2 28 Norte 52 Norte 0 -- -- 53
2017-11-05 16:00:00 15.1 29 Norte 52 Noroeste 0 -- -- 52
2017-11-05 15:00:00 16.8 34 Norte 56 Norte 0 -- -- 46
2017-11-05 14:00:00 17.3 30 Norte 51 Noroeste 0 -- -- 47
2017-11-05 13:00:00 17.4 28 Norte 49 Noroeste 0 -- -- 44
2017-11-05 12:00:00 17.2 26 Noroeste 52 Noroeste 0 -- -- 45
2017-11-05 11:00:00 16.2 25 Noroeste 51 Norte 0 -- -- 43
2017-11-05 10:00:00 15.7 31 Norte 52 Noroeste 0 -- -- 44
2017-11-05 09:00:00 14.9 20 Norte 37 Norte 0 -- -- 60
2017-11-05 08:00:00 15.3 21 Noroeste 39 Norte 0 -- -- 64
2017-11-05 07:00:00 15.7 12 Noroeste 33 Noroeste 0 -- -- 72
2017-11-05 06:00:00 15.8 11 Noroeste 34 Norte 0 -- -- 76
2017-11-05 05:00:00 15.8 17 Norte 33 Norte 0 -- -- 77
2017-11-05 04:00:00 15.1 14 Noroeste 26 Noroeste 0.2 -- -- 87
2017-11-05 03:00:00 14.7 5 Norte 19 Noroeste 0.4 -- -- 93
2017-11-05 02:00:00 15.3 14 Noroeste 31 Norte 0.4 -- -- 89
2017-11-05 01:00:00 14.7 6 Oeste 13 Oeste 0.2 -- -- 95
2017-11-05 00:00:00 14.5 5 Norte 11 Noroeste 0 -- -- 99
2017-11-04 23:00:00 14.9 4 Noroeste 20 Norte 0.4 -- -- 100
2017-11-04 22:00:00 15.2 9 Oeste 17 Oeste 3.4 -- -- 96
2017-11-04 21:00:00 15.2 4 Oeste 22 Noroeste 0 -- -- 95
2017-11-04 20:00:00 16.3 4 Sudeste 12 Oeste 0 -- -- 92
2017-11-04 19:00:00 16.9 4 Noroeste 13 Este 0 -- -- 91
2017-11-04 18:00:00 16.7 4 Este 17 Este 0 -- -- 91
2017-11-04 17:00:00 17.8 10 Este 28 Este 0 -- -- 86
2017-11-04 16:00:00 19.1 12 Este 28 Este 0 -- -- 80
2017-11-04 15:00:00 19.5 12 Sudeste 29 Sudeste 0 -- -- 83
2017-11-04 14:00:00 18.4 12 Sudeste 27 Sudeste 0 -- -- 92
2017-11-04 13:00:00 18.9 8 Sudeste 21 Sudeste 0 -- -- 92
2017-11-04 12:00:00 19.7 13 Sudeste 26 Sudeste 0 -- -- 91
2017-11-04 11:00:00 17.1 4 Este 9 Este 0 -- -- 99
2017-11-04 10:00:00 14.9 2 Norte 6 Oeste 0 -- -- 100
2017-11-04 09:00:00 14.3 0 Calma 8 Sudoeste 0 -- -- 100
2017-11-04 08:00:00 13.4 3 Oeste 6 Sudoeste 0 -- -- 100
2017-11-04 07:00:00 12.9 0 Calma 6 Oeste 0 -- -- 100
2017-11-04 06:00:00 12.3 4 Oeste 8 Oeste 0 -- -- 100
2017-11-04 05:00:00 11.9 3 Oeste 6 Oeste 0 -- -- 100
2017-11-04 04:00:00 12.2 0 Calma 5 Noroeste 0 -- -- 100
2017-11-04 03:00:00 12.3 0 Calma 6 Oeste 0 -- -- 100
2017-11-04 02:00:00 12.1 0 Calma 9 Oeste 0 -- -- 100
2017-11-04 01:00:00 12.2 5 Sudoeste 8 Sudoeste 0 -- -- 100
2017-11-04 00:00:00 13.2 3 Noroeste 7 Oeste 0 -- -- 100
2017-11-03 23:00:00 13.7 4 Noroeste 6 Oeste 0 -- -- 100
2017-11-03 22:00:00 14 0 Calma 8 Sudeste 0 -- -- 99
2017-11-03 21:00:00 14.2 2 Norte 5 Norte 0 -- -- 96
2017-11-03 20:00:00 15.3 0 Calma 8 Noroeste 0 -- -- 93
2017-11-03 19:00:00 17 4 Oeste 6 Este 0 -- -- 88
2017-11-03 18:00:00 19.3 6 Sur 20 Sur 0 -- -- 80
2017-11-03 17:00:00 20.9 10 Sur 21 Sur 0 -- -- 75
2017-11-03 16:00:00 22.1 11 Sur 23 Sur 0 -- -- 70
2017-11-03 15:00:00 20.9 13 Sudeste 25 Sudeste 0 -- -- 85
2017-11-03 14:00:00 20.4 15 Sudeste 27 Sudeste 0 -- -- 82
2017-11-03 13:00:00 20.1 10 Sudeste 19 Sudeste 0 -- -- 79
2017-11-03 12:00:00 19.4 6 Este 15 Sudeste 0 -- -- 78
2017-11-03 11:00:00 17.7 3 Sudeste 9 Sur 0 -- -- 85
2017-11-03 10:00:00 16 3 Oeste 6 Oeste 0 -- -- 89
2017-11-03 09:00:00 14.6 4 Sudoeste 6 Sudoeste 0 -- -- 94
2017-11-03 08:00:00 13.9 0 Calma 0 Calma 0 -- -- 96
2017-11-03 07:00:00 14.1 0 Calma 5 Oeste 0 -- -- 95
2017-11-03 06:00:00 14.1 3 Oeste 6 Noroeste 0 -- -- 95
2017-11-03 05:00:00 14 0 Calma 5 Oeste 0 -- -- 95
2017-11-03 04:00:00 13.8 3 Oeste 6 Oeste 0 -- -- 95
2017-11-03 03:00:00 13.6 3 Oeste 7 Oeste 0 -- -- 94
2017-11-03 02:00:00 13.7 0 Calma 9 Oeste 0 -- -- 94
2017-11-03 01:00:00 13.7 3 Noroeste 7 Oeste 0 -- -- 96
2017-11-03 00:00:00 13.8 2 Sudoeste 6 Sudoeste 0 -- -- 96
2017-11-02 23:00:00 14.2 3 Oeste 8 Noroeste 0 -- -- 95
2017-11-02 22:00:00 14.5 2 Noroeste 6 Oeste 0 -- -- 94
2017-11-02 21:00:00 14 4 Oeste 7 Noroeste 0 -- -- 97
2017-11-02 20:00:00 13.9 4 Oeste 6 Oeste 0 -- -- 93
2017-11-02 19:00:00 15 4 Noroeste 10 Nordeste 0 -- -- 90
2017-11-02 18:00:00 16.2 5 Nordeste 12 Este 0 -- -- 85
2017-11-02 17:00:00 18.3 6 Nordeste 14 Este 0 -- -- 79
2017-11-02 16:00:00 20 8 Nordeste 16 Nordeste 0 -- -- 72
2017-11-02 15:00:00 20.1 8 Este 17 Este 0 -- -- 75
2017-11-02 14:00:00 19.7 9 Este 17 Sudeste 0 -- -- 81
2017-11-02 13:00:00 18.8 6 Este 14 Este 0 -- -- 76
2017-11-02 12:00:00 18.3 3 Sudeste 6 Este 0 -- -- 80
2017-11-02 11:00:00 15.8 4 Oeste 8 Sudoeste 0 -- -- 88
2017-11-02 10:00:00 13.2 4 Oeste 10 Noroeste 0 -- -- 97
2017-11-02 09:00:00 11 3 Noroeste 9 Oeste 0 -- -- 100
2017-11-02 08:00:00 8.8 5 Oeste 8 Oeste 0 -- -- 100
2017-11-02 07:00:00 8.4 2 Oeste 9 Noroeste 0 -- -- 100
2017-11-02 06:00:00 8.4 4 Oeste 9 Noroeste 0 -- -- 100
2017-11-02 05:00:00 8.8 4 Noroeste 8 Oeste 0 -- -- 100
2017-11-02 04:00:00 9.1 4 Oeste 7 Noroeste 0 -- -- 100
2017-11-02 03:00:00 9.1 3 Noroeste 6 Noroeste 0 -- -- 100
2017-11-02 02:00:00 9.5 3 Noroeste 6 Noroeste 0 -- -- 100
2017-11-02 01:00:00 9.9 3 Noroeste 6 Oeste 0 -- -- 99
2017-11-02 00:00:00 10.4 0 Calma -- -- 0 -- -- 98
2017-11-01 23:00:00 11.3 0 Calma 9 Oeste 0 -- -- 97
2017-11-01 22:00:00 12.2 2 Noroeste 4 Oeste 0 -- -- 97
2017-11-01 21:00:00 12.9 2 Sudeste 6 Sudeste 0 -- -- 97
2017-11-01 20:00:00 13.6 3 Sudeste 7 Sudeste 0 -- -- 94
2017-11-01 19:00:00 15.2 5 Sudeste 15 Sudeste 0 -- -- 87
2017-11-01 18:00:00 16.7 8 Sudeste 20 Sudeste 0 -- -- 84
2017-11-01 17:00:00 18.1 13 Sudeste 26 Sudeste 0 -- -- 80
2017-11-01 16:00:00 19.5 15 Sudeste 29 Sudeste 0 -- -- 71
2017-11-01 15:00:00 20.3 16 Sudeste 28 Sudeste 0 -- -- 71
2017-11-01 14:00:00 19.8 12 Sudeste 24 Este 0 -- -- 74
2017-11-01 13:00:00 18.9 7 Este 17 Este 0 -- -- 73
2017-11-01 12:00:00 17.8 6 Sudeste 13 Sudeste 0 -- -- 72
2017-11-01 11:00:00 14.3 2 Sudeste 7 Norte 0 -- -- 77
2017-11-01 10:00:00 11.2 5 Noroeste 10 Oeste 0 -- -- 83
2017-11-01 09:00:00 7.3 5 Oeste 9 Oeste 0 -- -- 97
2017-11-01 08:00:00 4.9 3 Oeste 8 Noroeste 0 -- -- 99
2017-11-01 07:00:00 4.7 5 Noroeste 8 Noroeste 0 -- -- 99
2017-11-01 06:00:00 4.6 4 Noroeste 6 Oeste 0 -- -- 98
2017-11-01 05:00:00 4.6 0 Calma 0 Calma 0 -- -- 97
2017-11-01 04:00:00 5 0 Calma 0 Calma 0 -- -- 96
2017-11-01 03:00:00 5.3 0 Calma 4 Oeste 0 -- -- 96
2017-11-01 02:00:00 5.9 3 Noroeste 4 Oeste 0 -- -- 93
2017-11-01 01:00:00 7 2 Oeste 7 Oeste 0 -- -- 89
2017-11-01 00:00:00 8 4 Oeste 6 Oeste 0 -- -- 85
2017-10-31 23:00:00 8.6 4 Oeste 9 Noroeste 0 -- -- 82
2017-10-31 22:00:00 9.4 3 Noroeste 7 Oeste 0 -- -- 80
2017-10-31 21:00:00 10.3 4 Noroeste 9 Noroeste 0 -- -- 76
2017-10-31 20:00:00 11.7 4 Noroeste 8 Oeste 0 -- -- 72
2017-10-31 19:00:00 13.6 3 Noroeste 5 Noroeste 0 -- -- 68
2017-10-31 18:00:00 14.9 2 Noroeste 7 Nordeste 0 -- -- 64
2017-10-31 17:00:00 16.4 4 Nordeste 15 Nordeste 0 -- -- 57
2017-10-31 16:00:00 17.8 8 Este 18 Nordeste 0 -- -- 50
2017-10-31 15:00:00 18.3 10 Este 21 Nordeste 0 -- -- 47
2017-10-31 14:00:00 18.1 10 Este 21 Nordeste 0 -- -- 46
2017-10-31 13:00:00 17.9 9 Este 21 Este 0 -- -- 45
2017-10-31 12:00:00 17.3 8 Norte 20 Nordeste 0 -- -- 43
2017-10-31 11:00:00 16.5 10 Norte 22 Norte 0 -- -- 44
2017-10-31 10:00:00 15 10 Norte 18 Norte 0 -- -- 50
2017-10-31 09:00:00 10.5 4 Oeste 10 Oeste 0 -- -- 82
2017-10-31 08:00:00 6.8 3 Oeste 8 Noroeste 0 -- -- 93
2017-10-31 07:00:00 7.1 4 Sudoeste 8 Sudoeste 0 -- -- 90
2017-10-31 06:00:00 7.9 5 Oeste 8 Oeste 0 -- -- 88
2017-10-31 05:00:00 8.3 4 Oeste 11 Noroeste 0 -- -- 84
2017-10-31 04:00:00 9.5 7 Noroeste 11 Oeste 0 -- -- 79
2017-10-31 03:00:00 10.7 6 Oeste 19 Norte 0 -- -- 74
2017-10-31 02:00:00 12.5 8 Noroeste 23 Norte 0 -- -- 66
2017-10-31 01:00:00 11.4 4 Noroeste 8 Noroeste 0 -- -- 72
2017-10-31 00:00:00 12.4 5 Noroeste 19 Noroeste 0 -- -- 67
2017-10-30 23:00:00 13.5 14 Norte 26 Norte 0 -- -- 63
2017-10-30 22:00:00 13.9 17 Norte 29 Norte 0 -- -- 64
2017-10-30 21:00:00 14.4 15 Norte 34 Norte 0 -- -- 65
2017-10-30 20:00:00 15.3 21 Norte 48 Norte 0 -- -- 64
2017-10-30 19:00:00 15.6 22 Norte 42 Noroeste 0 -- -- 64
2017-10-30 18:00:00 16.4 21 Norte 39 Noroeste 0 -- -- 61
2017-10-30 17:00:00 17.8 18 Norte 40 Norte 0 -- -- 58
2017-10-30 16:00:00 20 22 Norte 41 Norte 0 -- -- 52
2017-10-30 15:00:00 20.7 25 Norte 46 Noroeste 0 -- -- 48
2017-10-30 14:00:00 20.9 22 Norte 39 Noroeste 0 -- -- 49
2017-10-30 13:00:00 20.5 21 Noroeste 37 Noroeste 0 -- -- 50
2017-10-30 12:00:00 20.1 21 Noroeste 36 Noroeste 0 -- -- 52
2017-10-30 11:00:00 19.5 17 Noroeste 33 Noroeste 0 -- -- 54
2017-10-30 10:00:00 18.5 18 Noroeste 34 Norte 0 -- -- 58
2017-10-30 09:00:00 16.8 13 Noroeste 30 Noroeste 0 -- -- 64
2017-10-30 08:00:00 14 8 Noroeste 18 Noroeste 0 -- -- 75
2017-10-30 07:00:00 13.6 4 Noroeste 12 Noroeste 0 -- -- 73
2017-10-30 06:00:00 14.7 4 Sudoeste 28 Noroeste 0 -- -- 67
2017-10-30 05:00:00 15.2 9 Noroeste 28 Noroeste 0 -- -- 66
2017-10-30 04:00:00 16 17 Noroeste 37 Noroeste 0 -- -- 63
2017-10-30 03:00:00 16.2 18 Noroeste 40 Noroeste 0 -- -- 62
2017-10-30 02:00:00 16.7 13 Noroeste 35 Noroeste 0 -- -- 59
2017-10-30 01:00:00 17.5 21 Noroeste 41 Noroeste 0 -- -- 55
2017-10-30 00:00:00 17.7 20 Noroeste 41 Noroeste 0 -- -- 53
2017-10-29 23:00:00 18 21 Noroeste 41 Norte 0 -- -- 52
2017-10-29 22:00:00 16.7 10 Noroeste 44 Noroeste 0 -- -- 53
2017-10-29 21:00:00 17.4 25 Noroeste 48 Noroeste 0 -- -- 45
2017-10-29 20:00:00 17 22 Noroeste 46 Noroeste 0 -- -- 51
2017-10-29 19:00:00 16.9 14 Noroeste 31 Noroeste 0 -- -- 50
2017-10-29 18:00:00 18.1 18 Norte 36 Norte 0 -- -- 43
2017-10-29 17:00:00 21 4 Sudeste 12 Sudeste 0 -- -- 56
2017-10-29 16:00:00 23.8 5 Sudeste 12 Sudeste 0 -- -- 43
2017-10-29 15:00:00 24 6 Sudeste 15 Sudeste 0 -- -- 41
2017-10-29 14:00:00 23.7 5 Sudeste 13 Este 0 -- -- 42
2017-10-29 13:00:00 21.8 8 Sudeste 19 Este 0 -- -- 52
2017-10-29 12:00:00 21.7 7 Sudeste 22 Este 0 -- -- 56
2017-10-29 11:00:00 18.6 4 Sudeste 9 Sudeste 0 -- -- 60
2017-10-29 10:00:00 15.7 4 Sudoeste 10 Oeste 0 -- -- 56
2017-10-29 09:00:00 12.6 3 Noroeste 20 Sudoeste 0 -- -- 69
2017-10-29 08:00:00 6.9 5 Oeste 11 Oeste 0 -- -- 99
2017-10-29 07:00:00 6.6 4 Sur 8 Sudoeste 0 -- -- 99
2017-10-29 06:00:00 7.1 3 Oeste 5 Oeste 0 -- -- 98
2017-10-29 05:00:00 7.6 2 Nordeste 7 Sudoeste 0 -- -- 95
2017-10-29 04:00:00 9.7 3 Este 14 Sudoeste 0 -- -- 89
2017-10-29 03:00:00 10.9 5 Sur 21 Oeste 0 -- -- 77
2017-10-29 02:00:00 12.9 4 Sur 17 Noroeste 0 -- -- 59
2017-10-29 01:00:00 15.5 11 Noroeste 40 Noroeste 0 -- -- 53
2017-10-29 00:00:00 16.4 19 Noroeste 35 Noroeste 0 -- -- 55
2017-10-28 23:00:00 16.5 11 Noroeste 29 Noroeste 0 -- -- 56
2017-10-28 22:00:00 16.8 15 Noroeste 38 Noroeste 0 -- -- 55
2017-10-28 21:00:00 17 19 Norte 36 Noroeste 0 -- -- 56
2017-10-28 20:00:00 17.5 14 Norte 30 Norte 0 -- -- 53
2017-10-28 19:00:00 19.4 14 Noroeste 27 Noroeste 0 -- -- 46
2017-10-28 18:00:00 22 9 Noroeste 19 Noroeste 0 -- -- 42
2017-10-28 17:00:00 23.9 8 Noroeste 26 Noroeste 0 -- -- 41
2017-10-28 16:00:00 23.5 14 Noroeste 34 Noroeste 0 -- -- 39
2017-10-28 15:00:00 23.4 16 Noroeste 41 Noroeste 0 -- -- 41
2017-10-28 14:00:00 22.7 17 Noroeste 33 Noroeste 0 -- -- 44
2017-10-28 13:00:00 22.7 13 Noroeste 28 Noroeste 0 -- -- 43
2017-10-28 12:00:00 21.8 15 Noroeste 29 Noroeste 0 -- -- 45
2017-10-28 11:00:00 20.5 13 Noroeste 23 Noroeste 0 -- -- 52
2017-10-28 10:00:00 19.4 9 Norte 33 Norte 0 -- -- 54
2017-10-28 09:00:00 19.4 23 Noroeste 43 Noroeste 0 -- -- 50
2017-10-28 08:00:00 17.5 14 Norte 35 Norte 0 -- -- 55
2017-10-28 07:00:00 18.9 21 Norte 42 Noroeste 0 -- -- 51
2017-10-28 06:00:00 18.4 18 Noroeste 38 Noroeste 0 -- -- 56
2017-10-28 05:00:00 18.2 18 Noroeste 45 Noroeste 0 -- -- 60
2017-10-28 04:00:00 18.7 24 Noroeste 57 Norte 0 -- -- 59
2017-10-28 03:00:00 19.1 21 Noroeste 67 Noroeste 0 -- -- 58
2017-10-28 02:00:00 19.4 27 Noroeste 57 Norte 0 -- -- 57
2017-10-28 01:00:00 19.7 15 Norte 55 Noroeste 0 -- -- 58
2017-10-28 00:00:00 19.7 26 Noroeste 60 Noroeste 0 -- -- 59
2017-10-27 23:00:00 19.9 25 Noroeste 50 Noroeste 0 -- -- 58
2017-10-27 22:00:00 20.3 27 Norte 52 Noroeste 0 -- -- 57
2017-10-27 21:00:00 20.3 23 Norte 62 Noroeste 0 -- -- 57
2017-10-27 20:00:00 20.4 21 Norte 72 Norte 0 -- -- 55
2017-10-27 19:00:00 21.4 45 Noroeste 84 Norte 0 -- -- 50
2017-10-27 18:00:00 21.9 36 Norte 71 Norte 0 -- -- 53
2017-10-27 17:00:00 22.8 31 Norte 63 Noroeste 0 -- -- 52
2017-10-27 16:00:00 22.8 40 Norte 64 Noroeste 0 -- -- 54
2017-10-27 15:00:00 23.7 24 Norte 40 Norte 0 -- -- 52
2017-10-27 14:00:00 23.8 7 Sudeste 13 Sudeste 0 -- -- 57
2017-10-27 13:00:00 22.6 8 Sudeste 17 Sudeste 0 -- -- 57
2017-10-27 12:00:00 19.3 6 Sur 11 Sudeste 0 -- -- 72
2017-10-27 11:00:00 14.9 0 Calma -- -- 0 -- -- 100
2017-10-27 10:00:00 11.9 0 Calma 5 Noroeste 0 -- -- 100
2017-10-27 09:00:00 8.9 3 Norte 8 Oeste 0 -- -- 100
2017-10-27 08:00:00 8.6 4 Oeste 10 Sudoeste 0 -- -- 100
2017-10-27 07:00:00 8.9 0 Calma 5 Nordeste 0 -- -- 100
2017-10-27 06:00:00 8.9 3 Noroeste 5 Oeste 0 -- -- 100
2017-10-27 05:00:00 9.4 0 Calma 6 Oeste 0 -- -- 100
2017-10-27 04:00:00 9.9 0 Calma 6 Oeste 0 -- -- 100
2017-10-27 03:00:00 9.9 0 Calma 6 Oeste 0 -- -- 100
2017-10-27 02:00:00 10.5 4 Oeste 6 Noroeste 0 -- -- 100
2017-10-27 01:00:00 11.3 0 Calma 4 Oeste 0 -- -- 100
2017-10-27 00:00:00 12 3 Oeste 5 Noroeste 0 -- -- 100
2017-10-26 23:00:00 12.7 0 Calma 5 Oeste 0 -- -- 100
2017-10-26 22:00:00 13.7 3 Noroeste 6 Noroeste 0 -- -- 100
2017-10-26 21:00:00 14.2 3 Noroeste 6 Noroeste 0 -- -- 98
2017-10-26 20:00:00 15.3 0 Calma 6 Sudeste 0 -- -- 95
2017-10-26 19:00:00 16.9 4 Sudeste 16 Este 0 -- -- 91
2017-10-26 18:00:00 18.9 8 Sudeste 15 Sudeste 0 -- -- 85
2017-10-26 17:00:00 20.4 7 Este 21 Sudeste 0 -- -- 80
2017-10-26 16:00:00 21.4 8 Sudeste 16 Sudeste 0 -- -- 77
2017-10-26 15:00:00 21.2 7 Sudeste 13 Sudeste 0 -- -- 78
2017-10-26 14:00:00 20.2 8 Sudeste 14 Sudeste 0 -- -- 80
2017-10-26 13:00:00 18.5 4 Norte 8 Norte 0 -- -- 88
2017-10-26 12:00:00 17 2 Norte 7 Oeste 0 -- -- 91
2017-10-26 11:00:00 15.3 5 Noroeste 10 Noroeste 0 -- -- 95
2017-10-26 10:00:00 13.6 5 Oeste 9 Oeste 0 -- -- 100
2017-10-26 09:00:00 12.6 4 Oeste 10 Oeste 0 -- -- 100
2017-10-26 08:00:00 12 4 Noroeste 10 Noroeste 0 -- -- 100
2017-10-26 07:00:00 11.6 0 Calma 0 Calma 0 -- -- 100
2017-10-26 06:00:00 10.9 0 Calma -- -- 0 -- -- 100
2017-10-26 05:00:00 9.9 0 Calma -- -- 0 -- -- 100
2017-10-26 04:00:00 10.1 0 Calma -- -- 0 -- -- 100
2017-10-26 03:00:00 10.6 0 Calma 5 Oeste 0 -- -- 100
2017-10-26 02:00:00 10.8 0 Calma -- -- 0 -- -- 100
2017-10-26 01:00:00 11.4 0 Calma 5 Noroeste 0 -- -- 100
2017-10-26 00:00:00 11.8 3 Oeste 5 Oeste 0 -- -- 99